Amsterdam, Netherlands

12:02 PM CET on December 10, 2016 (GMT +0100)
Aalsmeerderdijk | | Change Station

Elev -6 ft 52.28 °N, 4.76 °E | Updated 8 minutes ago

Overcast
Overcast
46.4 °F
Feels Like 46 °F
N
3.1
Wind Variable Wind from SW
Gusts 6.2 mph

Today
High -- | Low -- °F
--% Chance of Precip.
Yesterday
High -- | Low -- °F
Precip. -- in
Pressure 30.18 in
Visibility -9999.0 miles
Clouds Few 300 ft
Scattered Clouds 400 ft
Overcast 500 ft
Windchill 46 °F
Dew Point 43 °F
Humidity 89%
Rainfall 0.00 in
Snow Depth Not available.
8:39 AM 4:27 PM
Waxing Gibbous, 82% visible
METAR EHAM 101055Z 21007KT 180V240 3200 BR FEW003 SCT004 OVC005 09/08 Q1022 BECMG 1200 BKN002
Pressure 30.18 in
Visibility -9999.0 miles
Clouds Few 300 ft
Scattered Clouds 400 ft
Overcast 500 ft
Windchill 46 °F
Dew Point 43 °F
Humidity 89%
Rainfall 0.00 in
Snow Depth Not available.
8:39 AM 4:27 PM
Waxing Gibbous, 82% visible
METAR EHAM 101055Z 21007KT 180V240 3200 BR FEW003 SCT004 OVC005 09/08 Q1022 BECMG 1200 BKN002

10-Day Weather Forecast

×

Almanac

Astronomy

Dec. 10, 2016 Rise Set
Actual Time
Civil Twilight
Nautical Twilight
Astronomical Twilight
Moon
Length of Visible Light
Length of Day
Tomorrow will be .
, % of the Moon is Illuminated

Today's Extremes

Country Highs Country Lows

Community

WunderPhotos

Upload Photos

1,956,536 photos uploaded!

WunderBlog® & News

Nearby

Air Quality

  Air Quality AQ Index Pollutant
Not available.

Snow Depth

Station Depth Elevation

Earthquake Activity

City Distance Mag. Time & Date
Minimum magnitude displayed is 2.5.

Coastal Water Temperatures

Place Temperature

Stations

Nearby Weather Stations

Station Location Temp. Windchill Dew Point Humidity Wind Precip. Elev Updated Type